Augusta, Montana
Current Conditions -  °F | °C
As of 3:53 PM on Wednesday 22 Oct 2014 (Local Time) from KGTF Reporting Station
Clear Clear  
Wind Chill: 59°   Ceiling: Unl
Heat Index: 59°   Visibility: 10mi
Dew Point: 32°   Wind: 26mph
Humidity: 36%   Direction: 220°SW
Pressure: 29.86"   Gusts: 33mph
Location:  47.49°N, 112.4°W
Report Text: KGTF 222153Z 22023G29KT 10SM CLR 15/00 A2986 RMK AO2 PK WND 22033/2106 SLP115 T01500000
Loading
Personal Weather Stations






























Interactive Weather Map
Tropical Storm Tracking
New forecast layout! Learn more

10-Day Weather Forecast

Advertisements
Track Severe Weather on mobile